createdAt,value
2018-12-18T00:00:33.793Z,1007.67
2018-12-18T00:01:33.810Z,1007.64
2018-12-18T00:02:33.827Z,1007.67
2018-12-18T00:03:39.159Z,1007.66
2018-12-18T00:04:33.861Z,1007.67
2018-12-18T00:05:33.878Z,1007.7
2018-12-18T00:06:33.899Z,1007.68
2018-12-18T00:07:33.911Z,1007.65
2018-12-18T00:08:33.929Z,1007.66
2018-12-18T00:09:33.950Z,1007.69
2018-12-18T00:10:33.963Z,1007.67
2018-12-18T00:11:33.981Z,1007.62
2018-12-18T00:12:34.001Z,1007.63
2018-12-18T00:13:34.013Z,1007.64
2018-12-18T00:14:34.030Z,1007.62
2018-12-18T00:15:34.049Z,1007.62
2018-12-18T00:16:34.067Z,1007.63
2018-12-18T00:17:34.081Z,1007.62
2018-12-18T00:18:34.098Z,1007.59
2018-12-18T00:19:34.120Z,1007.62
2018-12-18T00:20:34.132Z,1007.62
2018-12-18T00:21:34.150Z,1007.66
2018-12-18T00:22:34.166Z,1007.65
2018-12-18T00:23:34.184Z,1007.63
2018-12-18T00:24:34.201Z,1007.61
2018-12-18T00:25:34.221Z,1007.64
2018-12-18T00:26:34.234Z,1007.63
2018-12-18T00:27:34.253Z,1007.63
2018-12-18T00:28:34.269Z,1007.62
2018-12-18T00:29:34.286Z,1007.59
2018-12-18T00:30:34.301Z,1007.63
2018-12-18T00:31:34.319Z,1007.65
2018-12-18T00:32:34.340Z,1007.65
2018-12-18T00:33:34.354Z,1007.61
2018-12-18T00:34:34.376Z,1007.64
2018-12-18T00:35:34.388Z,1007.61
2018-12-18T00:36:34.404Z,1007.61
2018-12-18T00:37:34.426Z,1007.62
2018-12-18T00:38:34.439Z,1007.62
2018-12-18T00:39:34.457Z,1007.57
2018-12-18T00:40:34.472Z,1007.56
2018-12-18T00:41:34.490Z,1007.6
2018-12-18T00:42:34.507Z,1007.58
2018-12-18T00:43:34.528Z,1007.56
2018-12-18T00:44:34.541Z,1007.58
2018-12-18T00:45:34.559Z,1007.56
2018-12-18T00:46:34.577Z,1007.59
2018-12-18T00:47:34.596Z,1007.59
2018-12-18T00:48:34.610Z,1007.58
2018-12-18T00:49:34.628Z,1007.53
2018-12-18T00:50:34.644Z,1007.57
2018-12-18T00:51:34.662Z,1007.56
2018-12-18T00:52:34.681Z,1007.55
2018-12-18T00:53:34.694Z,1007.57
2018-12-18T00:54:34.710Z,1007.57
2018-12-18T00:55:34.728Z,1007.62
2018-12-18T00:56:34.745Z,1007.62
2018-12-18T00:57:34.762Z,1007.63
2018-12-18T00:58:34.779Z,1007.65
2018-12-18T00:59:34.796Z,1007.61
2018-12-18T01:00:34.814Z,1007.61
2018-12-18T01:01:34.833Z,1007.56
2018-12-18T01:02:34.849Z,1007.56
2018-12-18T01:03:34.865Z,1007.57
2018-12-18T01:04:34.883Z,1007.59
2018-12-18T01:05:34.898Z,1007.53
2018-12-18T01:06:34.914Z,1007.57
2018-12-18T01:07:34.937Z,1007.56
2018-12-18T01:08:34.949Z,1007.52
2018-12-18T01:09:34.967Z,1007.52
2018-12-18T01:10:34.984Z,1007.56
2018-12-18T01:11:35.002Z,1007.53
2018-12-18T01:12:35.019Z,1007.58
2018-12-18T01:13:35.034Z,1007.58
2018-12-18T01:14:35.057Z,1007.6
2018-12-18T01:15:35.070Z,1007.6
2018-12-18T01:16:35.086Z,1007.59
2018-12-18T01:17:35.104Z,1007.57
2018-12-18T01:18:35.120Z,1007.64
2018-12-18T01:19:35.137Z,1007.66
2018-12-18T01:20:35.158Z,1007.62
2018-12-18T01:21:35.176Z,1007.61
2018-12-18T01:22:35.194Z,1007.65
2018-12-18T01:23:35.207Z,1007.63
2018-12-18T01:24:35.224Z,1007.68
2018-12-18T01:25:35.242Z,1007.63
2018-12-18T01:26:35.258Z,1007.65
2018-12-18T01:27:35.277Z,1007.69
2018-12-18T01:28:35.296Z,1007.64
2018-12-18T01:29:35.310Z,1007.62
2018-12-18T01:30:35.327Z,1007.66
2018-12-18T01:31:35.349Z,1007.67
2018-12-18T01:32:35.366Z,1007.67
2018-12-18T01:33:35.380Z,1007.67
2018-12-18T01:34:35.401Z,1007.65
2018-12-18T01:35:35.413Z,1007.67
2018-12-18T01:36:35.435Z,1007.66
2018-12-18T01:37:35.448Z,1007.68
2018-12-18T01:38:35.468Z,1007.74
2018-12-18T01:39:35.483Z,1007.7
2018-12-18T01:40:35.502Z,1007.73
2018-12-18T01:41:35.517Z,1007.76
2018-12-18T01:42:35.538Z,1007.7
2018-12-18T01:43:35.555Z,1007.67
2018-12-18T01:44:35.569Z,1007.68
2018-12-18T01:45:35.585Z,1007.72
2018-12-18T01:46:35.603Z,1007.76
2018-12-18T01:47:35.621Z,1007.73
2018-12-18T01:48:35.637Z,1007.75
2018-12-18T01:49:35.655Z,1007.74
2018-12-18T01:50:35.671Z,1007.71
2018-12-18T01:51:35.688Z,1007.68
2018-12-18T01:52:35.704Z,1007.67
2018-12-18T01:53:35.723Z,1007.68
2018-12-18T01:54:35.745Z,1007.69
2018-12-18T01:55:35.761Z,1007.71
2018-12-18T01:56:35.778Z,1007.69
2018-12-18T01:57:35.792Z,1007.69
2018-12-18T01:58:35.811Z,1007.69
2018-12-18T01:59:35.826Z,1007.67
2018-12-18T02:00:35.844Z,1007.7
2018-12-18T02:01:35.861Z,1007.7
2018-12-18T02:02:35.878Z,1007.71
2018-12-18T02:03:35.895Z,1007.7
2018-12-18T02:04:35.912Z,1007.73
2018-12-18T02:05:35.930Z,1007.73
2018-12-18T02:06:35.950Z,1007.72
2018-12-18T02:07:35.962Z,1007.74
2018-12-18T02:08:35.986Z,1007.75
2018-12-18T02:09:35.998Z,1007.77
2018-12-18T02:10:36.013Z,1007.76
2018-12-18T02:11:36.036Z,1007.74
2018-12-18T02:12:36.048Z,1007.74
2018-12-18T02:13:36.068Z,1007.72
2018-12-18T02:14:36.084Z,1007.74
2018-12-18T02:15:36.101Z,1007.7
2018-12-18T02:16:36.118Z,1007.68
2018-12-18T02:17:36.135Z,1007.66
2018-12-18T02:18:36.151Z,1007.62
2018-12-18T02:19:36.170Z,1007.65
2018-12-18T02:20:36.191Z,1007.63
2018-12-18T02:21:36.205Z,1007.62
2018-12-18T02:22:36.224Z,1007.63
2018-12-18T02:23:36.237Z,1007.61
2018-12-18T02:24:36.256Z,1007.56
2018-12-18T02:25:36.272Z,1007.57
2018-12-18T02:26:36.290Z,1007.59
2018-12-18T02:27:36.311Z,1007.6
2018-12-18T02:28:36.324Z,1007.6
2018-12-18T02:29:36.340Z,1007.56
2018-12-18T02:30:36.363Z,1007.56
2018-12-18T02:31:36.381Z,1007.52
2018-12-18T02:32:36.396Z,1007.54
2018-12-18T02:33:36.414Z,1007.56
2018-12-18T02:34:36.427Z,1007.58
2018-12-18T02:35:36.444Z,1007.56
2018-12-18T02:36:36.461Z,1007.61
2018-12-18T02:37:36.478Z,1007.6
2018-12-18T02:38:36.507Z,1007.59
2018-12-18T02:39:36.513Z,1007.64
2018-12-18T02:40:36.534Z,1007.6
2018-12-18T02:41:36.547Z,1007.63
2018-12-18T02:42:36.565Z,1007.61
2018-12-18T02:43:36.585Z,1007.62
2018-12-18T02:44:36.600Z,1007.65
2018-12-18T02:45:36.619Z,1007.66
2018-12-18T02:46:36.634Z,1007.61
2018-12-18T02:47:36.650Z,1007.61
2018-12-18T02:48:36.671Z,1007.66
2018-12-18T02:49:36.683Z,1007.65
2018-12-18T02:50:36.705Z,1007.66
2018-12-18T02:51:36.723Z,1007.65
2018-12-18T02:52:36.739Z,1007.7
2018-12-18T02:53:36.754Z,1007.68
2018-12-18T02:54:36.776Z,1007.66
2018-12-18T02:55:36.785Z,1007.69
2018-12-18T02:56:36.808Z,1007.6
2018-12-18T02:57:36.832Z,1007.59
2018-12-18T02:58:36.843Z,1007.6
2018-12-18T02:59:36.857Z,1007.59
2018-12-18T03:00:36.874Z,1007.61
2018-12-18T03:01:36.896Z,1007.61
2018-12-18T03:02:36.913Z,1007.62
2018-12-18T03:03:36.925Z,1007.68
2018-12-18T03:04:36.945Z,1007.65
2018-12-18T03:05:36.964Z,1007.64
2018-12-18T03:06:36.976Z,1007.6
2018-12-18T03:07:36.994Z,1007.58
2018-12-18T03:08:37.011Z,1007.67
2018-12-18T03:09:37.030Z,1007.59
2018-12-18T03:10:37.045Z,1007.61
2018-12-18T03:11:37.062Z,1007.65
2018-12-18T03:12:37.080Z,1007.64
2018-12-18T03:13:37.096Z,1007.64
2018-12-18T03:14:37.117Z,1007.65
2018-12-18T03:15:37.130Z,1007.67
2018-12-18T03:16:37.147Z,1007.64
2018-12-18T03:17:37.165Z,1007.64
2018-12-18T03:18:37.182Z,1007.64
2018-12-18T03:19:37.200Z,1007.6
2018-12-18T03:20:37.220Z,1007.61
2018-12-18T03:21:37.233Z,1007.58
2018-12-18T03:22:37.259Z,1007.56
2018-12-18T03:23:37.268Z,1007.56
2018-12-18T03:24:37.288Z,1007.58
2018-12-18T03:25:37.308Z,1007.53
2018-12-18T03:26:37.325Z,1007.57
2018-12-18T03:27:37.337Z,1007.53
2018-12-18T03:28:37.353Z,1007.55
2018-12-18T03:29:37.373Z,1007.58
2018-12-18T03:30:37.393Z,1007.62
2018-12-18T03:31:37.413Z,1007.6
2018-12-18T03:32:37.433Z,1007.59
2018-12-18T03:33:37.442Z,1007.57
2018-12-18T03:34:37.464Z,1007.55
2018-12-18T03:35:37.473Z,1007.55
2018-12-18T03:36:37.490Z,1007.49
2018-12-18T03:37:37.508Z,1007.5
2018-12-18T03:38:37.527Z,1007.45
2018-12-18T03:39:37.541Z,1007.48
2018-12-18T03:40:37.563Z,1007.47
2018-12-18T03:41:37.577Z,1007.52
2018-12-18T03:42:37.594Z,1007.55
2018-12-18T03:43:37.616Z,1007.51
2018-12-18T03:44:37.628Z,1007.52
2018-12-18T03:45:37.646Z,1007.51
2018-12-18T03:46:37.662Z,1007.51
2018-12-18T03:47:37.684Z,1007.47
2018-12-18T03:48:37.697Z,1007.51
2018-12-18T03:49:37.713Z,1007.55
2018-12-18T03:50:37.731Z,1007.59
2018-12-18T03:51:37.765Z,1007.58
2018-12-18T03:52:37.919Z,1007.57
2018-12-18T03:53:37.784Z,1007.55
2018-12-18T03:54:37.800Z,1007.6
2018-12-18T03:55:37.820Z,1007.67
2018-12-18T03:56:37.837Z,1007.63
2018-12-18T03:57:37.853Z,1007.66
2018-12-18T03:58:37.868Z,1007.64
2018-12-18T03:59:37.886Z,1007.62
2018-12-18T04:00:37.905Z,1007.65
2018-12-18T04:01:37.919Z,1007.62
2018-12-18T04:02:37.947Z,1007.66
2018-12-18T04:03:37.954Z,1007.65
2018-12-18T04:04:37.974Z,1007.68
2018-12-18T04:05:37.991Z,1007.71
2018-12-18T04:06:38.006Z,1007.71
2018-12-18T04:07:38.022Z,1007.75
2018-12-18T04:08:38.040Z,1007.72
2018-12-18T04:09:38.059Z,1007.71
2018-12-18T04:10:38.078Z,1007.71
2018-12-18T04:11:38.089Z,1007.7
2018-12-18T04:12:38.108Z,1007.69
2018-12-18T04:13:38.125Z,1007.69
2018-12-18T04:14:38.143Z,1007.67
2018-12-18T04:15:38.159Z,1007.65
2018-12-18T04:16:38.179Z,1007.63
2018-12-18T04:17:38.194Z,1007.64
2018-12-18T04:18:38.209Z,1007.65
2018-12-18T04:19:38.228Z,1007.63
2018-12-18T04:20:38.244Z,1007.62
2018-12-18T04:21:38.261Z,1007.59
2018-12-18T04:22:38.329Z,1007.57
2018-12-18T04:23:38.297Z,1007.6
2018-12-18T04:24:38.317Z,1007.61
2018-12-18T04:25:38.331Z,1007.63
2018-12-18T04:26:38.348Z,1007.64
2018-12-18T04:27:38.365Z,1007.58
2018-12-18T04:28:38.382Z,1007.62
2018-12-18T04:29:38.398Z,1007.64
2018-12-18T04:30:38.417Z,1007.64
2018-12-18T04:31:38.433Z,1007.64
2018-12-18T04:32:38.454Z,1007.63
2018-12-18T04:33:38.468Z,1007.65
2018-12-18T04:34:42.811Z,1007.6
2018-12-18T04:35:38.501Z,1007.58
2018-12-18T04:36:38.523Z,1007.57
2018-12-18T04:37:38.542Z,1007.58
2018-12-18T04:38:38.555Z,1007.58
2018-12-18T04:39:38.572Z,1007.6
2018-12-18T04:40:38.598Z,1007.62
2018-12-18T04:41:38.606Z,1007.63
2018-12-18T04:42:38.623Z,1007.66
2018-12-18T04:43:38.641Z,1007.67
2018-12-18T04:44:38.660Z,1007.61
2018-12-18T04:45:38.675Z,1007.6
2018-12-18T04:46:38.691Z,1007.59
2018-12-18T04:47:38.708Z,1007.59
2018-12-18T04:48:38.725Z,1007.61
2018-12-18T04:49:38.743Z,1007.59
2018-12-18T04:50:38.761Z,1007.62
2018-12-18T04:51:38.776Z,1007.57
2018-12-18T04:52:38.794Z,1007.59
2018-12-18T04:53:38.811Z,1007.58
2018-12-18T04:54:38.837Z,1007.67
2018-12-18T04:55:38.854Z,1007.65
2018-12-18T04:56:38.867Z,1007.66
2018-12-18T04:57:38.880Z,1007.65
2018-12-18T04:58:38.897Z,1007.68
2018-12-18T04:59:38.921Z,1007.65
2018-12-18T05:00:38.931Z,1007.64
2018-12-18T05:01:38.953Z,1007.71
2018-12-18T05:02:38.964Z,1007.73
2018-12-18T05:03:38.982Z,1007.75
2018-12-18T05:04:39.003Z,1007.69
2018-12-18T05:05:39.018Z,1007.76
2018-12-18T05:06:39.034Z,1007.77
2018-12-18T05:07:39.052Z,1007.78
2018-12-18T05:08:39.071Z,1007.75
2018-12-18T05:09:39.088Z,1007.76
2018-12-18T05:10:39.102Z,1007.76
2018-12-18T05:11:39.122Z,1007.74
2018-12-18T05:12:39.137Z,1007.79
2018-12-18T05:13:39.158Z,1007.75
2018-12-18T05:14:39.171Z,1007.76
2018-12-18T05:15:39.238Z,1007.8
2018-12-18T05:16:39.206Z,1007.82
2018-12-18T05:17:39.226Z,1007.85
2018-12-18T05:18:39.239Z,1007.82
2018-12-18T05:19:39.257Z,1007.84
2018-12-18T05:20:39.278Z,1007.82
2018-12-18T05:21:39.290Z,1007.83
2018-12-18T05:22:39.308Z,1007.81
2018-12-18T05:23:39.329Z,1007.81
2018-12-18T05:24:39.346Z,1007.78
2018-12-18T05:25:39.359Z,1007.78
2018-12-18T05:26:39.438Z,1007.8
2018-12-18T05:27:39.395Z,1007.79
2018-12-18T05:28:39.416Z,1007.77
2018-12-18T05:29:39.429Z,1007.77
2018-12-18T05:30:39.453Z,1007.79
2018-12-18T05:31:39.468Z,1007.8
2018-12-18T05:32:39.481Z,1007.79
2018-12-18T05:33:39.498Z,1007.83
2018-12-18T05:34:39.515Z,1007.84
2018-12-18T05:35:39.532Z,1007.82
2018-12-18T05:36:39.550Z,1007.81
2018-12-18T05:37:39.567Z,1007.84
2018-12-18T05:38:39.584Z,1007.83
2018-12-18T05:39:39.602Z,1007.84
2018-12-18T05:40:39.620Z,1007.78
2018-12-18T05:41:39.636Z,1007.84
2018-12-18T05:42:39.655Z,1007.84
2018-12-18T05:43:39.675Z,1007.84
2018-12-18T05:44:39.692Z,1007.87
2018-12-18T05:45:39.704Z,1007.84
2018-12-18T05:46:39.724Z,1007.85
2018-12-18T05:47:39.741Z,1007.84
2018-12-18T05:48:39.758Z,1007.87
2018-12-18T05:49:39.780Z,1007.85
2018-12-18T05:50:39.791Z,1007.85
2018-12-18T05:51:39.808Z,1007.84
2018-12-18T05:52:39.826Z,1007.85
2018-12-18T05:53:39.841Z,1007.83
2018-12-18T05:54:39.864Z,1007.85
2018-12-18T05:55:39.879Z,1007.89
2018-12-18T05:56:39.899Z,1007.89
2018-12-18T05:57:39.911Z,1007.9
2018-12-18T05:58:39.934Z,1007.94
2018-12-18T05:59:39.947Z,1007.94
2018-12-18T06:00:39.964Z,1007.95
2018-12-18T06:01:39.981Z,1007.99
2018-12-18T06:02:39.998Z,1007.96
2018-12-18T06:03:40.017Z,1008
2018-12-18T06:04:40.033Z,1008
2018-12-18T06:05:40.050Z,1007.97
2018-12-18T06:06:40.072Z,1007.98
2018-12-18T06:07:40.085Z,1008.01
2018-12-18T06:08:40.102Z,1008.01
2018-12-18T06:09:40.122Z,1008
2018-12-18T06:10:40.137Z,1008.01
2018-12-18T06:11:40.160Z,1008.01
2018-12-18T06:12:40.172Z,1007.99
2018-12-18T06:13:40.194Z,1008.04
2018-12-18T06:14:40.210Z,1008.01
2018-12-18T06:15:40.224Z,1008.04
2018-12-18T06:16:40.241Z,1008.03
2018-12-18T06:17:40.257Z,1007.98
2018-12-18T06:18:40.276Z,1007.98
2018-12-18T06:19:40.295Z,1008
2018-12-18T06:20:40.310Z,1007.98
2018-12-18T06:21:40.328Z,1007.97
2018-12-18T06:22:40.344Z,1008.02
2018-12-18T06:23:40.360Z,1008.03
2018-12-18T06:24:40.378Z,1008
2018-12-18T06:25:40.398Z,1008.03
2018-12-18T06:26:40.413Z,1008.02
2018-12-18T06:27:40.430Z,1008.05
2018-12-18T06:28:40.453Z,1008.03
2018-12-18T06:29:40.467Z,1008.04
2018-12-18T06:30:40.481Z,1008.05
2018-12-18T06:31:40.503Z,1008.05
2018-12-18T06:32:40.519Z,1008.06
2018-12-18T06:33:40.533Z,1008.06
2018-12-18T06:34:40.551Z,1008.1
2018-12-18T06:35:40.569Z,1008.09
2018-12-18T06:36:40.586Z,1008.08
2018-12-18T06:37:40.606Z,1008.12
2018-12-18T06:38:40.620Z,1008.1
2018-12-18T06:39:40.640Z,1008.1
2018-12-18T06:40:40.655Z,1008.11
2018-12-18T06:41:40.670Z,1008.06
2018-12-18T06:42:40.704Z,1008.06
2018-12-18T06:43:40.706Z,1008.04
2018-12-18T06:44:40.722Z,1008.07
2018-12-18T06:45:40.741Z,1008.07
2018-12-18T06:46:40.757Z,1008.05
2018-12-18T06:47:40.776Z,1008.1
2018-12-18T06:48:40.796Z,1008.08
2018-12-18T06:49:40.808Z,1008.05
2018-12-18T06:50:40.829Z,1008.11
2018-12-18T06:51:40.843Z,1008.08
2018-12-18T06:52:40.861Z,1008.08
2018-12-18T06:53:40.879Z,1008.07
2018-12-18T06:54:40.898Z,1008.06
2018-12-18T06:55:40.913Z,1008.05
2018-12-18T06:56:40.932Z,1008.08
2018-12-18T06:57:40.946Z,1008.04
2018-12-18T06:58:40.964Z,1008.07
2018-12-18T06:59:40.980Z,1008.08
2018-12-18T07:00:41.002Z,1008.1
2018-12-18T07:01:41.015Z,1008.11
2018-12-18T07:02:41.037Z,1008.11
2018-12-18T07:03:41.052Z,1008.08
2018-12-18T07:04:41.071Z,1008.09
2018-12-18T07:05:41.084Z,1008.13
2018-12-18T07:06:41.104Z,1008.12
2018-12-18T07:07:41.118Z,1008.13
2018-12-18T07:08:41.139Z,1008.12
2018-12-18T07:09:41.153Z,1008.15
2018-12-18T07:10:41.169Z,1008.16
2018-12-18T07:11:41.186Z,1008.17
2018-12-18T07:12:41.205Z,1008.19
2018-12-18T07:13:41.222Z,1008.19
2018-12-18T07:14:41.238Z,1008.13
2018-12-18T07:15:41.259Z,1008.2
2018-12-18T07:16:41.274Z,1008.19
2018-12-18T07:17:41.289Z,1008.16
2018-12-18T07:18:41.310Z,1008.19
2018-12-18T07:19:41.325Z,1008.22
2018-12-18T07:20:41.346Z,1008.25
2018-12-18T07:21:41.357Z,1008.25
2018-12-18T07:22:41.375Z,1008.25
2018-12-18T07:23:41.395Z,1008.24
2018-12-18T07:24:41.411Z,1008.27
2018-12-18T07:25:41.428Z,1008.28
2018-12-18T07:26:41.446Z,1008.27
2018-12-18T07:27:41.463Z,1008.33
2018-12-18T07:28:41.479Z,1008.31
2018-12-18T07:29:41.496Z,1008.35
2018-12-18T07:30:41.513Z,1008.36
2018-12-18T07:31:41.531Z,1008.38
2018-12-18T07:32:41.550Z,1008.35
2018-12-18T07:33:41.569Z,1008.34
2018-12-18T07:34:42.605Z,1008.33
2018-12-18T07:35:41.600Z,1008.35
2018-12-18T07:36:41.617Z,1008.35
2018-12-18T07:37:41.634Z,1008.32
2018-12-18T07:38:41.655Z,1008.34
2018-12-18T07:39:41.667Z,1008.32
2018-12-18T07:40:41.690Z,1008.3
2018-12-18T07:41:41.703Z,1008.3
2018-12-18T07:42:41.726Z,1008.31
2018-12-18T07:43:41.738Z,1008.32
2018-12-18T07:44:41.754Z,1008.28
2018-12-18T07:45:41.773Z,1008.24
2018-12-18T07:46:41.794Z,1008.26
2018-12-18T07:47:41.808Z,1008.22
2018-12-18T07:48:41.829Z,1008.2
2018-12-18T07:49:41.843Z,1008.2
2018-12-18T07:50:41.866Z,1008.21
2018-12-18T07:51:41.880Z,1008.25
2018-12-18T07:52:41.894Z,1008.22
2018-12-18T07:53:41.913Z,1008.25
2018-12-18T07:54:41.929Z,1008.18
2018-12-18T07:55:41.947Z,1008.18
2018-12-18T07:56:41.964Z,1008.17
2018-12-18T07:57:41.984Z,1008.21
2018-12-18T07:58:41.998Z,1008.2
2018-12-18T07:59:42.016Z,1008.16
2018-12-18T08:00:42.039Z,1008.17
2018-12-18T08:01:42.049Z,1008.17
2018-12-18T08:02:42.067Z,1008.19
2018-12-18T08:03:42.085Z,1008.13
2018-12-18T08:04:42.105Z,1008.18
2018-12-18T08:05:42.120Z,1008.12
2018-12-18T08:06:42.136Z,1008.15
2018-12-18T08:07:42.157Z,1008.13
2018-12-18T08:08:42.169Z,1008.15
2018-12-18T08:09:42.193Z,1008.19
2018-12-18T08:10:42.205Z,1008.16
2018-12-18T08:11:42.226Z,1008.15
2018-12-18T08:12:42.239Z,1008.16
2018-12-18T08:13:42.257Z,1008.14
2018-12-18T08:14:42.279Z,1008.17
2018-12-18T08:15:43.574Z,1008.12
2018-12-18T08:16:42.312Z,1008.1
2018-12-18T08:17:42.326Z,1008.07
2018-12-18T08:18:42.347Z,1008.08
2018-12-18T08:19:42.359Z,1008.09
2018-12-18T08:20:42.380Z,1008.05
2018-12-18T08:21:42.399Z,1008.09
2018-12-18T08:22:42.417Z,1008.08
2018-12-18T08:23:42.430Z,1008.06
2018-12-18T08:24:42.447Z,1008.03
2018-12-18T08:25:42.465Z,1008.08
2018-12-18T08:26:42.485Z,1008.05
2018-12-18T08:27:42.498Z,1008.02
2018-12-18T08:28:42.516Z,1008.01
2018-12-18T08:29:42.538Z,1008
2018-12-18T08:30:42.551Z,1008
2018-12-18T08:31:42.568Z,1008.03
2018-12-18T08:32:42.585Z,1008.02
2018-12-18T08:33:42.603Z,1008.01
2018-12-18T08:34:42.620Z,1008.03
2018-12-18T08:35:42.641Z,1008.01
2018-12-18T08:36:42.659Z,1007.99
2018-12-18T08:37:42.672Z,1007.99
2018-12-18T08:38:42.689Z,1007.97
2018-12-18T08:39:42.707Z,1007.94
2018-12-18T08:40:42.728Z,1007.93
2018-12-18T08:41:42.743Z,1007.88
2018-12-18T08:42:42.763Z,1007.86
2018-12-18T08:43:42.776Z,1007.82
2018-12-18T08:44:42.794Z,1007.79
2018-12-18T08:45:42.809Z,1007.8
2018-12-18T08:46:42.828Z,1007.76
2018-12-18T08:47:42.844Z,1007.78
2018-12-18T08:48:42.867Z,1007.72
2018-12-18T08:49:42.880Z,1007.69
2018-12-18T08:50:42.901Z,1007.68
2018-12-18T08:51:42.915Z,1007.66
2018-12-18T08:52:42.935Z,1007.62
2018-12-18T08:53:42.952Z,1007.6
2018-12-18T08:54:42.967Z,1007.52
2018-12-18T08:55:42.984Z,1007.53
2018-12-18T08:56:43.000Z,1007.5
2018-12-18T08:57:43.019Z,1007.45
2018-12-18T08:58:43.035Z,1007.41
2018-12-18T08:59:43.054Z,1007.43
2018-12-18T09:00:43.070Z,1007.43
2018-12-18T09:01:43.092Z,1007.42
2018-12-18T09:02:43.108Z,1007.41
2018-12-18T09:03:43.231Z,1007.37
2018-12-18T09:04:43.143Z,1007.36
2018-12-18T09:05:43.537Z,1007.38
2018-12-18T09:06:43.175Z,1007.37
2018-12-18T09:07:43.191Z,1007.41
2018-12-18T09:08:43.210Z,1007.38
2018-12-18T09:09:43.230Z,1007.33
2018-12-18T09:10:43.244Z,1007.36
2018-12-18T09:11:43.262Z,1007.34
2018-12-18T09:12:43.278Z,1007.26
2018-12-18T09:13:43.298Z,1007.25
2018-12-18T09:14:43.313Z,1007.24
2018-12-18T09:15:43.329Z,1007.23
2018-12-18T09:16:43.348Z,1007.23
2018-12-18T09:17:43.366Z,1007.22
2018-12-18T09:18:43.383Z,1007.2
2018-12-18T09:19:43.413Z,1007.17
2018-12-18T09:20:43.421Z,1007.1
2018-12-18T09:21:43.434Z,1007.12
2018-12-18T09:22:43.452Z,1007.13
2018-12-18T09:23:43.475Z,1007.12
2018-12-18T09:24:43.492Z,1007.08
2018-12-18T09:25:43.509Z,1007.1
2018-12-18T09:26:43.522Z,1007.14
2018-12-18T09:27:43.539Z,1007.14
2018-12-18T09:28:43.558Z,1007.13
2018-12-18T09:29:43.576Z,1007.13
2018-12-18T09:30:43.592Z,1007.11
2018-12-18T09:31:43.609Z,1007.13
2018-12-18T09:32:43.626Z,1007.11
2018-12-18T09:33:43.643Z,1007.13
2018-12-18T09:34:43.661Z,1007.13
2018-12-18T09:35:49.508Z,1007.12
2018-12-18T09:36:43.700Z,1007.15
2018-12-18T09:37:43.716Z,1007.16
2018-12-18T09:38:43.730Z,1007.17
2018-12-18T09:39:43.753Z,1007.14
2018-12-18T09:40:43.765Z,1007.18
2018-12-18T09:41:43.784Z,1007.21
2018-12-18T09:42:43.801Z,1007.22
2018-12-18T09:43:43.818Z,1007.21
2018-12-18T09:44:43.835Z,1007.24
2018-12-18T09:45:43.857Z,1007.22
2018-12-18T09:46:43.870Z,1007.24
2018-12-18T09:47:43.887Z,1007.22
2018-12-18T09:48:43.905Z,1007.27
2018-12-18T09:49:43.922Z,1007.25
2018-12-18T09:50:43.940Z,1007.25
2018-12-18T09:51:43.958Z,1007.26
2018-12-18T09:52:43.975Z,1007.23
2018-12-18T09:53:43.992Z,1007.24
2018-12-18T09:54:44.008Z,1007.24
2018-12-18T09:55:44.026Z,1007.24
2018-12-18T09:56:44.043Z,1007.26
2018-12-18T09:57:44.062Z,1007.27
2018-12-18T09:58:44.079Z,1007.24
2018-12-18T09:59:44.098Z,1007.26
2018-12-18T10:00:44.116Z,1007.26
2018-12-18T10:01:44.131Z,1007.25
2018-12-18T10:02:44.151Z,1007.22
2018-12-18T10:03:44.166Z,1007.2
2018-12-18T10:04:44.187Z,1007.17
2018-12-18T10:05:44.202Z,1007.1
2018-12-18T10:06:45.077Z,1007.12
2018-12-18T10:07:44.236Z,1007.11
2018-12-18T10:08:44.254Z,1007.13
2018-12-18T10:09:44.284Z,1007.14
2018-12-18T10:10:44.292Z,1007.08
2018-12-18T10:11:44.306Z,1007.1
2018-12-18T10:12:44.324Z,1007.11
2018-12-18T10:13:44.341Z,1007.1
2018-12-18T10:14:44.361Z,1007.06
2018-12-18T10:15:44.381Z,1007.03
2018-12-18T10:16:44.394Z,1007.02
2018-12-18T10:17:44.418Z,1007.03
2018-12-18T10:18:44.429Z,1007
2018-12-18T10:19:44.450Z,1006.99
2018-12-18T10:20:44.464Z,1006.95
2018-12-18T10:21:44.481Z,1006.96
2018-12-18T10:22:44.500Z,1006.93
2018-12-18T10:23:44.518Z,1006.88
2018-12-18T10:24:44.541Z,1006.88
2018-12-18T10:25:44.558Z,1006.86
2018-12-18T10:26:44.573Z,1006.86
2018-12-18T10:27:44.589Z,1006.82
2018-12-18T10:28:44.604Z,1006.82
2018-12-18T10:29:44.622Z,1006.79
2018-12-18T10:30:44.641Z,1006.78
2018-12-18T10:31:44.657Z,1006.77
2018-12-18T10:32:44.679Z,1006.73
2018-12-18T10:33:44.693Z,1006.72
2018-12-18T10:34:44.712Z,1006.69
2018-12-18T10:35:44.732Z,1006.66
2018-12-18T10:36:44.750Z,1006.66
2018-12-18T10:37:44.762Z,1006.64
2018-12-18T10:38:44.779Z,1006.63
2018-12-18T10:39:44.798Z,1006.6
2018-12-18T10:40:44.816Z,1006.58
2018-12-18T10:41:44.838Z,1006.57
2018-12-18T10:42:44.851Z,1006.55
2018-12-18T10:43:44.872Z,1006.52
2018-12-18T10:44:44.888Z,1006.55
2018-12-18T10:45:44.913Z,1006.49
2018-12-18T10:46:44.921Z,1006.54
2018-12-18T10:47:44.940Z,1006.44
2018-12-18T10:48:44.959Z,1006.48
2018-12-18T10:49:44.977Z,1006.44
2018-12-18T10:50:44.997Z,1006.48
2018-12-18T10:51:45.014Z,1006.5
2018-12-18T10:52:45.028Z,1006.44
2018-12-18T10:53:45.046Z,1006.45
2018-12-18T10:54:45.063Z,1006.43
2018-12-18T10:55:45.082Z,1006.43
2018-12-18T10:56:45.104Z,1006.42
2018-12-18T10:57:45.121Z,1006.38
2018-12-18T10:58:45.134Z,1006.39
2018-12-18T10:59:45.154Z,1006.38
2018-12-18T11:00:45.174Z,1006.38
2018-12-18T11:01:45.188Z,1006.39
2018-12-18T11:02:45.205Z,1006.32
2018-12-18T11:03:45.223Z,1006.3
2018-12-18T11:04:45.240Z,1006.29
2018-12-18T11:05:45.262Z,1006.27
2018-12-18T11:06:45.280Z,1006.27
2018-12-18T11:07:45.293Z,1006.23
2018-12-18T11:08:45.316Z,1006.23
2018-12-18T11:09:45.329Z,1006.24
2018-12-18T11:10:45.346Z,1006.2
2018-12-18T11:11:45.365Z,1006.21
2018-12-18T11:12:45.382Z,1006.18
2018-12-18T11:13:45.401Z,1006.12
2018-12-18T11:14:45.416Z,1006.14
2018-12-18T11:15:45.436Z,1006.09
2018-12-18T11:16:45.455Z,1006.12
2018-12-18T11:17:45.470Z,1006.12
2018-12-18T11:18:45.497Z,1006.11
2018-12-18T11:19:45.504Z,1006.15
2018-12-18T11:20:45.523Z,1006.15
2018-12-18T11:21:45.606Z,1006.17
2018-12-18T11:22:45.556Z,1006.14
2018-12-18T11:23:45.575Z,1006.13
2018-12-18T11:24:45.592Z,1006.14
2018-12-18T11:25:45.615Z,1006.17
2018-12-18T11:26:45.628Z,1006.15
2018-12-18T11:27:45.649Z,1006.14
2018-12-18T11:28:45.664Z,1006.16
2018-12-18T11:29:45.685Z,1006.14
2018-12-18T11:30:45.698Z,1006.1
2018-12-18T11:31:45.715Z,1006.08
2018-12-18T11:32:45.733Z,1006.07
2018-12-18T11:33:45.751Z,1006.09
2018-12-18T11:34:45.769Z,1006.1
2018-12-18T11:35:45.787Z,1006.05
2018-12-18T11:36:45.807Z,1006.02
2018-12-18T11:37:45.821Z,1005.96
2018-12-18T11:38:45.840Z,1005.99
2018-12-18T11:39:45.857Z,1005.99
2018-12-18T11:40:45.877Z,1006.02
2018-12-18T11:41:45.892Z,1006.05
2018-12-18T11:42:45.914Z,1006
2018-12-18T11:43:46.053Z,1006
2018-12-18T11:44:45.943Z,1005.99
2018-12-18T11:45:45.967Z,1005.96
2018-12-18T11:46:45.979Z,1005.97
2018-12-18T11:47:45.997Z,1005.96
2018-12-18T11:48:46.016Z,1005.97
2018-12-18T11:49:46.033Z,1005.93
2018-12-18T11:50:46.050Z,1005.96
2018-12-18T11:51:46.069Z,1005.93
2018-12-18T11:52:46.089Z,1005.97
2018-12-18T11:53:46.104Z,1005.89
2018-12-18T11:54:46.120Z,1005.87
2018-12-18T11:55:46.138Z,1005.84
2018-12-18T11:56:46.155Z,1005.82
2018-12-18T11:57:46.172Z,1005.82
2018-12-18T11:58:46.195Z,1005.82
2018-12-18T11:59:46.209Z,1005.76
2018-12-18T12:00:46.224Z,1005.77
2018-12-18T12:01:46.243Z,1005.7
2018-12-18T12:02:46.259Z,1005.73
2018-12-18T12:03:46.278Z,1005.71
2018-12-18T12:04:46.297Z,1005.73
2018-12-18T12:05:46.314Z,1005.73
2018-12-18T12:06:46.332Z,1005.69
2018-12-18T12:07:46.349Z,1005.73
2018-12-18T12:08:46.367Z,1005.7